Time;durP1;ratioP1;P1;durP2;ratioP2;P2;SDS_P1;SDS_P2;PMS_P1;PMS_P2;Temp;Humidity;BMP_temperature;BMP_pressure;BME280_temperature;BME280_humidity;BME280_pressure;Samples;Min_cycle;Max_cycle;Signal;HPM_P1;HPM_P2
2023/12/16 00:02:03;;;;;;;;;;;6.70;91.70;;;;;;5045932;28;19963;-62
2023/12/16 00:04:37;;;;;;;;;;;6.70;91.70;;;;;;5055104;28;20380;-66
2023/12/16 00:07:11;;;;;;;;;;;6.70;91.70;;;;;;5067657;28;19935;-63
2023/12/16 00:09:44;;;;;;;;;;;6.70;91.60;;;;;;5065306;28;20276;-62
2023/12/16 00:12:17;;;;;;;;;;;6.70;91.60;;;;;;5068736;28;20458;-61
2023/12/16 00:14:50;;;;;;;;;;;6.70;91.60;;;;;;5066813;28;20043;-62
2023/12/16 00:17:24;;;;;;;;;;;6.70;91.60;;;;;;5053658;28;19939;-62
2023/12/16 00:19:58;;;;;;;;;;;6.70;91.60;;;;;;5046411;28;20296;-62
2023/12/16 00:22:31;;;;;;;;;;;6.80;91.60;;;;;;5044816;28;19933;-62
2023/12/16 00:25:04;;;;;;;;;;;6.80;91.70;;;;;;5050982;28;19925;-62
2023/12/16 00:27:38;;;;;;;;;;;6.80;91.70;;;;;;5052280;28;20042;-61
2023/12/16 00:30:11;;;;;;;;;;;6.80;91.60;;;;;;5054771;28;19936;-62
2023/12/16 00:32:45;;;;;;;;;;;6.80;91.50;;;;;;5049037;28;19971;-62
2023/12/16 00:35:21;;;;;;;;;;;6.70;91.60;;;;;;5050042;28;20362;-62
2023/12/16 00:37:55;;;;;;;;;;;6.70;91.70;;;;;;5051534;28;19928;-62
2023/12/16 00:40:28;;;;;;;;;;;6.70;91.70;;;;;;5063409;28;19925;-62
2023/12/16 00:43:02;;;;;;;;;;;6.70;91.70;;;;;;5069779;28;20413;-62
2023/12/16 00:45:36;;;;;;;;;;;6.80;91.60;;;;;;5066494;28;20026;-62
2023/12/16 00:48:10;;;;;;;;;;;6.70;91.70;;;;;;5067830;28;19928;-62
2023/12/16 00:50:44;;;;;;;;;;;6.70;91.70;;;;;;5066159;28;19929;-61
2023/12/16 00:53:17;;;;;;;;;;;6.70;91.70;;;;;;5065066;28;19924;-62
2023/12/16 00:55:50;;;;;;;;;;;6.70;91.70;;;;;;5066211;28;19924;-63
2023/12/16 00:58:24;;;;;;;;;;;6.70;91.70;;;;;;5066719;28;19932;-62
2023/12/16 01:00:57;;;;;;;;;;;6.70;91.70;;;;;;5053919;28;19943;-63
2023/12/16 01:03:31;;;;;;;;;;;6.80;91.60;;;;;;5068546;28;19928;-62
2023/12/16 01:06:05;;;;;;;;;;;6.70;91.60;;;;;;5067500;28;19970;-61
2023/12/16 01:08:38;;;;;;;;;;;6.70;91.60;;;;;;5067065;28;19960;-62
2023/12/16 01:11:14;;;;;;;;;;;6.70;91.70;;;;;;5060447;28;20278;-61
2023/12/16 01:13:47;;;;;;;;;;;6.70;91.70;;;;;;5047828;28;19925;-62
2023/12/16 01:16:20;;;;;;;;;;;6.70;91.60;;;;;;5044801;28;20020;-61
2023/12/16 01:18:54;;;;;;;;;;;6.70;91.70;;;;;;5044919;28;19936;-63
2023/12/16 01:21:28;;;;;;;;;;;6.70;91.70;;;;;;5046000;28;19925;-63
2023/12/16 01:24:01;;;;;;;;;;;6.70;91.60;;;;;;5046481;28;19925;-62
2023/12/16 01:26:35;;;;;;;;;;;6.70;91.50;;;;;;5039613;28;20372;-63
2023/12/16 01:29:08;;;;;;;;;;;6.70;91.60;;;;;;5043518;28;19959;-63
2023/12/16 01:31:41;;;;;;;;;;;6.70;91.70;;;;;;5047283;28;19935;-62
2023/12/16 01:34:15;;;;;;;;;;;6.70;91.80;;;;;;5044267;28;19929;-62
2023/12/16 01:36:48;;;;;;;;;;;6.70;91.80;;;;;;5044832;28;19936;-61
2023/12/16 01:39:21;;;;;;;;;;;6.70;91.70;;;;;;5046454;28;19936;-62
2023/12/16 01:41:55;;;;;;;;;;;6.70;91.80;;;;;;5044161;28;19964;-62
2023/12/16 01:44:28;;;;;;;;;;;6.70;91.80;;;;;;5044841;28;19932;-62
2023/12/16 01:47:01;;;;;;;;;;;6.60;91.80;;;;;;5044607;28;19970;-62
2023/12/16 01:49:37;;;;;;;;;;;6.70;91.80;;;;;;5046041;28;20032;-63
2023/12/16 01:52:10;;;;;;;;;;;6.60;91.80;;;;;;5048690;28;19964;-62
2023/12/16 01:54:46;;;;;;;;;;;6.60;91.80;;;;;;5048404;28;19925;-62
2023/12/16 01:57:20;;;;;;;;;;;6.60;91.80;;;;;;5050208;28;19971;-62
2023/12/16 01:59:59;;;;;;;;;;;6.70;91.70;;;;;;5050357;28;19929;-61
2023/12/16 02:02:43;;;;;;;;;;;6.60;91.70;;;;;;5049698;28;20364;-60
2023/12/16 02:05:20;;;;;;;;;;;6.60;91.80;;;;;;5049443;28;19983;-63
2023/12/16 02:07:53;;;;;;;;;;;6.60;91.70;;;;;;5047775;28;19932;-62
2023/12/16 02:10:26;;;;;;;;;;;6.60;91.70;;;;;;5047530;28;19978;-62
2023/12/16 02:13:01;;;;;;;;;;;6.60;91.70;;;;;;5049844;28;20014;-61
2023/12/16 02:15:35;;;;;;;;;;;6.60;91.70;;;;;;5049959;28;19929;-62
2023/12/16 02:18:08;;;;;;;;;;;6.60;91.70;;;;;;5049550;28;19928;-61
2023/12/16 02:20:43;;;;;;;;;;;6.60;91.70;;;;;;5045330;28;20376;-62
2023/12/16 02:23:17;;;;;;;;;;;6.60;91.70;;;;;;5049658;28;19924;-62
2023/12/16 02:25:51;;;;;;;;;;;6.60;91.70;;;;;;5048567;28;19932;-61
2023/12/16 02:28:24;;;;;;;;;;;6.60;91.70;;;;;;5048644;28;20015;-62
2023/12/16 02:30:57;;;;;;;;;;;6.70;91.70;;;;;;5045732;28;20024;-63
2023/12/16 02:33:39;;;;;;;;;;;6.60;91.60;;;;;;5046655;28;20405;-61
2023/12/16 02:36:13;;;;;;;;;;;6.60;91.60;;;;;;5046508;28;19953;-61
2023/12/16 02:38:47;;;;;;;;;;;6.60;91.60;;;;;;5046945;28;19924;-62
2023/12/16 02:41:21;;;;;;;;;;;6.60;91.60;;;;;;5047760;28;21219;-60
2023/12/16 02:43:54;;;;;;;;;;;6.60;91.70;;;;;;5046112;28;19936;-61
2023/12/16 02:46:33;;;;;;;;;;;6.60;91.70;;;;;;5046407;28;20475;-62
2023/12/16 02:49:07;;;;;;;;;;;6.60;91.70;;;;;;5043691;28;19928;-63
2023/12/16 02:51:40;;;;;;;;;;;6.60;91.70;;;;;;5047737;28;20011;-62
2023/12/16 02:54:08;;;;;;;;;;;6.50;91.70;;;;;;5050222;28;20343;-61
2023/12/16 02:56:41;;;;;;;;;;;6.50;91.70;;;;;;5066862;28;19932;-62
2023/12/16 02:59:14;;;;;;;;;;;6.60;91.70;;;;;;5066277;28;19994;-64
2023/12/16 03:01:47;;;;;;;;;;;6.50;91.70;;;;;;5065997;28;19924;-61
2023/12/16 03:04:20;;;;;;;;;;;6.50;91.70;;;;;;5068493;28;19956;-61
2023/12/16 03:06:53;;;;;;;;;;;6.50;91.80;;;;;;5066776;28;19971;-61
2023/12/16 03:09:27;;;;;;;;;;;6.50;91.70;;;;;;5068860;28;20019;-62
2023/12/16 03:12:01;;;;;;;;;;;6.50;91.70;;;;;;5050815;28;19936;-62
2023/12/16 03:14:28;;;;;;;;;;;6.50;91.70;;;;;;5047623;28;20035;-63
2023/12/16 03:17:01;;;;;;;;;;;6.50;91.80;;;;;;5046513;28;20350;-62
2023/12/16 03:19:34;;;;;;;;;;;6.50;91.80;;;;;;5046916;28;20027;-61
2023/12/16 03:22:01;;;;;;;;;;;6.50;91.80;;;;;;5048386;28;19982;-61
2023/12/16 03:24:38;;;;;;;;;;;6.50;91.80;;;;;;5045444;28;19951;-61
2023/12/16 03:27:12;;;;;;;;;;;6.50;91.80;;;;;;5048260;28;19925;-62
2023/12/16 03:29:45;;;;;;;;;;;6.50;91.70;;;;;;5044619;28;19933;-59
2023/12/16 03:32:18;;;;;;;;;;;6.60;91.60;;;;;;5060914;28;20084;-60
2023/12/16 03:34:51;;;;;;;;;;;6.60;91.60;;;;;;5063445;28;19974;-61
2023/12/16 03:37:24;;;;;;;;;;;6.50;91.50;;;;;;5045616;28;19940;-60
2023/12/16 03:39:58;;;;;;;;;;;6.50;91.60;;;;;;5044824;28;19933;-60
2023/12/16 03:42:33;;;;;;;;;;;6.50;91.60;;;;;;5046835;28;19924;-60
2023/12/16 03:45:06;;;;;;;;;;;6.50;91.60;;;;;;5043637;28;20372;-60
2023/12/16 03:47:40;;;;;;;;;;;6.50;91.60;;;;;;5053649;28;19975;-60
2023/12/16 03:50:13;;;;;;;;;;;6.50;91.60;;;;;;5051287;28;20432;-60
2023/12/16 03:52:46;;;;;;;;;;;6.50;91.70;;;;;;5069168;28;19929;-59
2023/12/16 03:55:20;;;;;;;;;;;6.50;91.70;;;;;;5070491;28;20012;-60
2023/12/16 03:57:54;;;;;;;;;;;6.40;91.70;;;;;;5053331;28;19924;-59
2023/12/16 04:00:27;;;;;;;;;;;6.50;91.70;;;;;;5068146;28;19924;-60
2023/12/16 04:03:01;;;;;;;;;;;6.50;91.70;;;;;;5055665;28;19947;-58
2023/12/16 04:05:35;;;;;;;;;;;6.50;91.70;;;;;;5050214;28;20023;-60
2023/12/16 04:08:08;;;;;;;;;;;6.50;91.70;;;;;;5046087;28;19929;-60
2023/12/16 04:10:48;;;;;;;;;;;6.50;91.60;;;;;;5051868;28;19931;-60
2023/12/16 04:13:22;;;;;;;;;;;6.50;91.60;;;;;;5052432;28;19929;-58
2023/12/16 04:15:52;;;;;;;;;;;6.50;91.50;;;;;;5047021;28;20434;-60
2023/12/16 04:18:25;;;;;;;;;;;6.50;91.50;;;;;;5051971;28;19936;-61
2023/12/16 04:20:59;;;;;;;;;;;6.40;91.50;;;;;;5048771;28;19929;-61
2023/12/16 04:23:32;;;;;;;;;;;6.50;91.50;;;;;;5048377;28;20015;-60
2023/12/16 04:26:06;;;;;;;;;;;6.50;91.50;;;;;;5048303;28;19925;-59
2023/12/16 04:28:40;;;;;;;;;;;6.50;91.50;;;;;;5050423;28;19935;-60
2023/12/16 04:31:13;;;;;;;;;;;6.50;91.50;;;;;;5046442;28;19929;-59
2023/12/16 04:33:48;;;;;;;;;;;6.40;91.50;;;;;;5049824;28;19928;-59
2023/12/16 04:36:21;;;;;;;;;;;6.50;91.50;;;;;;5049489;28;19928;-61
2023/12/16 04:38:54;;;;;;;;;;;6.50;91.50;;;;;;5048549;28;19925;-60
2023/12/16 04:41:28;;;;;;;;;;;6.50;91.50;;;;;;5050562;28;19924;-60
2023/12/16 04:44:01;;;;;;;;;;;6.50;91.40;;;;;;5049703;28;19992;-60
2023/12/16 04:46:34;;;;;;;;;;;6.50;91.40;;;;;;5048657;28;19975;-59
2023/12/16 04:49:08;;;;;;;;;;;6.50;91.50;;;;;;5050736;28;19925;-60
2023/12/16 04:51:44;;;;;;;;;;;6.40;91.50;;;;;;5048995;28;19925;-58
2023/12/16 04:54:17;;;;;;;;;;;6.40;91.50;;;;;;5045656;28;19924;-60
2023/12/16 04:56:52;;;;;;;;;;;6.40;91.50;;;;;;5049259;28;20003;-60
2023/12/16 04:59:25;;;;;;;;;;;6.40;91.40;;;;;;5047995;28;19929;-61
2023/12/16 05:01:58;;;;;;;;;;;6.50;91.40;;;;;;5050743;28;19929;-60
2023/12/16 05:04:31;;;;;;;;;;;6.50;91.40;;;;;;5048315;28;20380;-61
2023/12/16 05:07:04;;;;;;;;;;;6.50;91.30;;;;;;5050681;28;19929;-60
2023/12/16 05:09:31;;;;;;;;;;;6.50;91.20;;;;;;5051561;28;20006;-59
2023/12/16 05:12:07;;;;;;;;;;;6.50;91.30;;;;;;5049294;28;20002;-60
2023/12/16 05:14:40;;;;;;;;;;;6.40;91.30;;;;;;5050241;28;19932;-60
2023/12/16 05:17:14;;;;;;;;;;;6.50;91.40;;;;;;5041691;28;19931;-60
2023/12/16 05:19:47;;;;;;;;;;;6.50;91.30;;;;;;5047883;28;19925;-60
2023/12/16 05:22:21;;;;;;;;;;;6.50;91.30;;;;;;5042622;28;19929;-59
2023/12/16 05:24:57;;;;;;;;;;;6.50;91.30;;;;;;5049136;28;19932;-59
2023/12/16 05:27:31;;;;;;;;;;;6.50;91.20;;;;;;5049362;28;19928;-60
2023/12/16 05:30:05;;;;;;;;;;;6.50;91.20;;;;;;5044096;28;19975;-59
2023/12/16 05:32:39;;;;;;;;;;;6.50;91.20;;;;;;5046066;28;19932;-59
2023/12/16 05:35:12;;;;;;;;;;;6.50;91.20;;;;;;5045429;28;19925;-59
2023/12/16 05:37:45;;;;;;;;;;;6.50;91.20;;;;;;5045487;28;19960;-59
2023/12/16 05:40:18;;;;;;;;;;;6.50;91.20;;;;;;5045030;28;19932;-60
2023/12/16 05:42:52;;;;;;;;;;;6.40;91.20;;;;;;5047045;28;19925;-61
2023/12/16 05:45:25;;;;;;;;;;;6.40;91.30;;;;;;5045967;28;20336;-60
2023/12/16 05:47:51;;;;;;;;;;;6.40;91.30;;;;;;5047672;28;19972;-61
2023/12/16 05:50:25;;;;;;;;;;;6.40;91.30;;;;;;5044146;28;19925;-70
2023/12/16 05:52:58;;;;;;;;;;;6.40;91.40;;;;;;5048057;28;19925;-70
2023/12/16 05:55:32;;;;;;;;;;;6.40;91.30;;;;;;5048119;28;20007;-70
2023/12/16 05:58:07;;;;;;;;;;;6.30;91.30;;;;;;5047262;28;20016;-70
2023/12/16 06:00:40;;;;;;;;;;;6.30;91.40;;;;;;5045017;28;19936;-70
2023/12/16 06:03:13;;;;;;;;;;;6.30;91.40;;;;;;5049287;28;19982;-70
2023/12/16 06:05:46;;;;;;;;;;;6.30;91.40;;;;;;5045060;28;19928;-71
2023/12/16 06:08:19;;;;;;;;;;;6.30;91.50;;;;;;5042418;28;19932;-71
2023/12/16 06:10:52;;;;;;;;;;;6.30;91.50;;;;;;5046433;28;20336;-70
2023/12/16 06:13:26;;;;;;;;;;;6.30;91.50;;;;;;5047383;28;20406;-72
2023/12/16 06:15:59;;;;;;;;;;;6.30;91.50;;;;;;5047317;28;19929;-75
2023/12/16 06:18:35;;;;;;;;;;;6.30;91.50;;;;;;5046695;28;19932;-71
2023/12/16 06:21:02;;;;;;;;;;;6.30;91.40;;;;;;5047545;28;19974;-70
2023/12/16 06:23:35;;;;;;;;;;;6.30;91.50;;;;;;5050149;28;20379;-70
2023/12/16 06:26:08;;;;;;;;;;;6.30;91.40;;;;;;5049176;28;19936;-70
2023/12/16 06:28:42;;;;;;;;;;;6.20;91.50;;;;;;5045704;28;19936;-71
2023/12/16 06:31:16;;;;;;;;;;;6.20;91.40;;;;;;5047260;28;19928;-70
2023/12/16 06:33:49;;;;;;;;;;;6.30;91.50;;;;;;5046387;28;19968;-71
2023/12/16 06:36:22;;;;;;;;;;;6.30;91.40;;;;;;5045171;28;19968;-70
2023/12/16 06:38:55;;;;;;;;;;;6.30;91.40;;;;;;5045183;28;19931;-71
2023/12/16 06:41:29;;;;;;;;;;;6.20;91.40;;;;;;5045581;28;19975;-71
2023/12/16 06:44:03;;;;;;;;;;;6.20;91.40;;;;;;5046612;28;19963;-70
2023/12/16 06:46:37;;;;;;;;;;;6.20;91.40;;;;;;5044042;28;20307;-69
2023/12/16 06:49:10;;;;;;;;;;;6.20;91.40;;;;;;5044570;28;19932;-70
2023/12/16 06:51:43;;;;;;;;;;;6.20;91.40;;;;;;5043661;28;20019;-70
2023/12/16 06:54:16;;;;;;;;;;;6.20;91.40;;;;;;5045599;28;19972;-70
2023/12/16 06:56:49;;;;;;;;;;;6.20;91.40;;;;;;5043084;28;19975;-70
2023/12/16 06:59:23;;;;;;;;;;;6.20;91.40;;;;;;5043569;28;20019;-70
2023/12/16 07:01:56;;;;;;;;;;;6.20;91.40;;;;;;5044813;28;20021;-72
2023/12/16 07:04:29;;;;;;;;;;;6.20;91.30;;;;;;5045783;28;19933;-72
2023/12/16 07:07:02;;;;;;;;;;;6.10;91.30;;;;;;5046533;28;20046;-73
2023/12/16 07:09:29;;;;;;;;;;;6.20;91.30;;;;;;5046147;28;19932;-72
2023/12/16 07:12:02;;;;;;;;;;;6.20;91.30;;;;;;5066395;28;19928;-74
2023/12/16 07:14:37;;;;;;;;;;;6.20;91.30;;;;;;5051364;28;19937;-71
2023/12/16 07:17:11;;;;;;;;;;;6.10;91.30;;;;;;5045690;28;20357;-74
2023/12/16 07:19:44;;;;;;;;;;;6.20;91.30;;;;;;5047632;28;19960;-72
2023/12/16 07:22:15;;;;;;;;;;;6.20;91.30;;;;;;5044474;28;19924;-74
2023/12/16 07:24:48;;;;;;;;;;;6.20;91.20;;;;;;5044300;28;20369;-73
2023/12/16 07:27:22;;;;;;;;;;;6.20;91.20;;;;;;5044044;28;19950;-74
2023/12/16 07:29:56;;;;;;;;;;;6.20;91.30;;;;;;5043495;28;20268;-74
2023/12/16 07:32:29;;;;;;;;;;;6.20;91.20;;;;;;5041392;28;19932;-72
2023/12/16 07:35:02;;;;;;;;;;;6.20;91.20;;;;;;5044168;28;19982;-72
2023/12/16 07:37:36;;;;;;;;;;;6.20;91.20;;;;;;5046091;28;19937;-73
2023/12/16 07:40:09;;;;;;;;;;;6.20;91.20;;;;;;5047926;28;19951;-73
2023/12/16 07:42:43;;;;;;;;;;;6.10;91.20;;;;;;5041737;28;20307;-74
2023/12/16 07:45:17;;;;;;;;;;;6.20;91.20;;;;;;5047248;28;19971;-72
2023/12/16 07:47:51;;;;;;;;;;;6.20;91.20;;;;;;5044323;28;19929;-74
2023/12/16 07:50:24;;;;;;;;;;;6.20;91.20;;;;;;5037273;28;20390;-72
2023/12/16 07:52:57;;;;;;;;;;;6.20;91.10;;;;;;5043867;28;19932;-72
2023/12/16 07:55:30;;;;;;;;;;;6.20;91.10;;;;;;5043527;28;19932;-72
2023/12/16 07:58:03;;;;;;;;;;;6.20;91.10;;;;;;5044724;28;19936;-74
2023/12/16 08:00:38;;;;;;;;;;;6.20;91.10;;;;;;5046794;28;19929;-73
2023/12/16 08:03:11;;;;;;;;;;;6.20;91.10;;;;;;5045909;28;19995;-72
2023/12/16 08:05:44;;;;;;;;;;;6.20;91.10;;;;;;5044309;28;19929;-72
2023/12/16 08:08:17;;;;;;;;;;;6.20;91.00;;;;;;5048183;28;19968;-72
2023/12/16 08:10:53;;;;;;;;;;;6.30;91.10;;;;;;5045624;28;19928;-70
2023/12/16 08:13:19;;;;;;;;;;;6.20;91.00;;;;;;5047101;28;19956;-71
2023/12/16 08:15:57;;;;;;;;;;;6.30;91.10;;;;;;5044608;28;19956;-69
2023/12/16 08:18:31;;;;;;;;;;;6.30;91.10;;;;;;5060452;28;19956;-69
2023/12/16 08:21:10;;;;;;;;;;;6.30;91.10;;;;;;5064159;28;19928;-68
2023/12/16 08:23:44;;;;;;;;;;;6.20;91.00;;;;;;5060234;28;20364;-70
2023/12/16 08:26:17;;;;;;;;;;;6.30;91.00;;;;;;5055228;28;19925;-71
2023/12/16 08:28:50;;;;;;;;;;;6.30;91.00;;;;;;5060810;28;19974;-70
2023/12/16 08:31:24;;;;;;;;;;;6.30;91.10;;;;;;5060129;28;19932;-70
2023/12/16 08:33:58;;;;;;;;;;;6.30;91.00;;;;;;5045110;28;19983;-71
2023/12/16 08:36:31;;;;;;;;;;;6.30;91.00;;;;;;5046568;28;19931;-69
2023/12/16 08:39:04;;;;;;;;;;;6.30;91.00;;;;;;5047129;28;20015;-70
2023/12/16 08:41:44;;;;;;;;;;;6.30;91.00;;;;;;5049365;28;19931;-70
2023/12/16 08:44:17;;;;;;;;;;;6.40;91.00;;;;;;5046509;28;19925;-70
2023/12/16 08:46:52;;;;;;;;;;;6.40;90.90;;;;;;5045915;28;20303;-71
2023/12/16 08:49:26;;;;;;;;;;;6.40;90.90;;;;;;5044615;28;19929;-70
2023/12/16 08:51:59;;;;;;;;;;;6.40;90.90;;;;;;5045097;28;19977;-69
2023/12/16 08:54:32;;;;;;;;;;;6.40;90.90;;;;;;5047826;28;20011;-70
2023/12/16 08:57:06;;;;;;;;;;;6.50;90.90;;;;;;5048324;28;19925;-69
2023/12/16 08:59:39;;;;;;;;;;;6.50;90.90;;;;;;5046978;28;19956;-71
2023/12/16 09:02:13;;;;;;;;;;;6.50;90.80;;;;;;5051664;28;19952;-70
2023/12/16 09:04:47;;;;;;;;;;;6.50;90.80;;;;;;5049819;28;19933;-72
2023/12/16 09:07:20;;;;;;;;;;;6.50;90.80;;;;;;5051985;28;19925;-71
2023/12/16 09:09:53;;;;;;;;;;;6.50;90.80;;;;;;5042129;28;19960;-68
2023/12/16 09:12:26;;;;;;;;;;;6.60;90.80;;;;;;5050211;28;19931;-69
2023/12/16 09:14:59;;;;;;;;;;;6.60;90.70;;;;;;5046883;28;19931;-70
2023/12/16 09:17:33;;;;;;;;;;;6.60;90.70;;;;;;5050889;28;19925;-70
2023/12/16 09:20:07;;;;;;;;;;;6.70;90.70;;;;;;5049123;28;20010;-67
2023/12/16 09:22:41;;;;;;;;;;;6.70;90.50;;;;;;5050976;28;20027;-66
2023/12/16 09:25:14;;;;;;;;;;;6.70;90.50;;;;;;5052560;28;19925;-67
2023/12/16 09:27:47;;;;;;;;;;;6.70;90.50;;;;;;5060087;28;19936;-66
2023/12/16 09:30:14;;;;;;;;;;;6.70;90.40;;;;;;5047951;28;19951;-65
2023/12/16 09:32:48;;;;;;;;;;;6.70;90.30;;;;;;5044933;28;19925;-66
2023/12/16 09:35:22;;;;;;;;;;;6.70;90.30;;;;;;5049735;28;19955;-65
2023/12/16 09:37:55;;;;;;;;;;;6.70;90.30;;;;;;5044174;28;19925;-66
2023/12/16 09:40:28;;;;;;;;;;;6.80;90.20;;;;;;5044670;28;20448;-66
2023/12/16 09:43:14;;;;;;;;;;;6.70;90.10;;;;;;5046891;28;19932;-67
2023/12/16 09:45:47;;;;;;;;;;;6.80;90.20;;;;;;5046360;28;20055;-66
2023/12/16 09:48:22;;;;;;;;;;;6.80;90.20;;;;;;5046171;28;19932;-67
2023/12/16 09:50:55;;;;;;;;;;;6.80;90.10;;;;;;5050752;28;20400;-66
2023/12/16 09:53:28;;;;;;;;;;;6.90;90.00;;;;;;5051943;28;20022;-66
2023/12/16 09:56:01;;;;;;;;;;;6.90;90.00;;;;;;5055980;28;19971;-67
2023/12/16 09:58:34;;;;;;;;;;;6.90;89.80;;;;;;5066312;28;19931;-67
2023/12/16 10:01:10;;;;;;;;;;;6.90;89.90;;;;;;5068124;28;19925;-65
2023/12/16 10:03:46;;;;;;;;;;;7.00;89.90;;;;;;5069664;28;19931;-66
2023/12/16 10:06:19;;;;;;;;;;;6.90;89.60;;;;;;5065858;28;19924;-68
2023/12/16 10:08:52;;;;;;;;;;;7.00;89.60;;;;;;5057408;28;19936;-67
2023/12/16 10:11:25;;;;;;;;;;;7.00;89.80;;;;;;5043587;28;20371;-66
2023/12/16 10:13:59;;;;;;;;;;;7.10;89.50;;;;;;5066407;28;19925;-65
2023/12/16 10:16:35;;;;;;;;;;;7.10;89.50;;;;;;5051837;28;19929;-67
2023/12/16 10:19:12;;;;;;;;;;;7.10;89.30;;;;;;5067698;28;20009;-66
2023/12/16 10:21:45;;;;;;;;;;;7.20;89.40;;;;;;5067945;28;19924;-66
2023/12/16 10:24:18;;;;;;;;;;;7.20;89.20;;;;;;5066627;28;19953;-66
2023/12/16 10:26:51;;;;;;;;;;;7.20;89.20;;;;;;5064706;28;19928;-66
2023/12/16 10:29:24;;;;;;;;;;;7.30;89.10;;;;;;5062634;28;20368;-66
2023/12/16 10:31:52;;;;;;;;;;;7.40;89.00;;;;;;5055861;28;19925;-72
2023/12/16 10:34:30;;;;;;;;;;;7.40;88.90;;;;;;5049779;28;19936;-75
2023/12/16 10:37:04;;;;;;;;;;;7.50;88.80;;;;;;5048729;28;19935;-72
2023/12/16 10:39:37;;;;;;;;;;;7.50;88.70;;;;;;5046311;28;20307;-71
2023/12/16 10:42:10;;;;;;;;;;;7.40;88.70;;;;;;5048536;28;19929;-73
2023/12/16 10:44:43;;;;;;;;;;;7.40;88.50;;;;;;5048507;28;19998;-71
2023/12/16 10:47:17;;;;;;;;;;;7.30;88.40;;;;;;5049781;28;19929;-73
2023/12/16 10:49:53;;;;;;;;;;;7.30;88.70;;;;;;5045342;28;19935;-74
2023/12/16 10:52:28;;;;;;;;;;;7.30;88.30;;;;;;5044778;28;19932;-73
2023/12/16 10:55:03;;;;;;;;;;;7.40;88.30;;;;;;5054997;28;19959;-72
2023/12/16 10:57:40;;;;;;;;;;;7.40;88.50;;;;;;5062899;28;19978;-73
2023/12/16 11:00:15;;;;;;;;;;;7.40;88.10;;;;;;5052992;28;19928;-73
2023/12/16 11:02:54;;;;;;;;;;;7.40;88.20;;;;;;5064469;28;20329;-72
2023/12/16 11:05:31;;;;;;;;;;;7.40;87.90;;;;;;5065205;28;20002;-73
2023/12/16 11:08:05;;;;;;;;;;;7.50;88.10;;;;;;5047191;28;19929;-73
2023/12/16 11:10:38;;;;;;;;;;;7.60;87.90;;;;;;5047284;28;19925;-73
2023/12/16 11:13:11;;;;;;;;;;;7.60;88.00;;;;;;5049488;28;20548;-73
2023/12/16 11:15:44;;;;;;;;;;;7.60;87.90;;;;;;5039389;28;19935;-72
2023/12/16 11:18:13;;;;;;;;;;;7.70;87.70;;;;;;5045019;28;19991;-73
2023/12/16 11:20:49;;;;;;;;;;;7.70;87.70;;;;;;5043947;28;19935;-71
2023/12/16 11:23:36;;;;;;;;;;;7.60;87.50;;;;;;5044784;28;23496;-73
2023/12/16 11:26:17;;;;;;;;;;;7.60;87.40;;;;;;5043675;28;19932;-72
2023/12/16 11:28:53;;;;;;;;;;;7.60;87.50;;;;;;5047624;28;19979;-74
2023/12/16 11:31:27;;;;;;;;;;;7.60;87.00;;;;;;5044977;28;19925;-72
2023/12/16 11:34:02;;;;;;;;;;;7.70;87.30;;;;;;5047646;28;19925;-72
2023/12/16 11:36:51;;;;;;;;;;;7.70;86.90;;;;;;5042534;28;19932;-73
2023/12/16 11:39:37;;;;;;;;;;;7.60;87.00;;;;;;5047995;28;19960;-74
2023/12/16 11:42:11;;;;;;;;;;;7.60;86.80;;;;;;5057792;28;19929;-62
2023/12/16 11:44:47;;;;;;;;;;;7.70;86.60;;;;;;5056324;28;19931;-60
2023/12/16 11:47:22;;;;;;;;;;;7.80;86.60;;;;;;5045774;28;19928;-62
2023/12/16 11:49:55;;;;;;;;;;;7.80;86.40;;;;;;5045668;28;19936;-62
2023/12/16 11:52:29;;;;;;;;;;;7.90;86.40;;;;;;5045243;28;19933;-62
2023/12/16 11:55:03;;;;;;;;;;;7.90;86.20;;;;;;5052479;28;19979;-62
2023/12/16 11:57:37;;;;;;;;;;;7.90;85.80;;;;;;5061020;28;20378;-62
2023/12/16 12:00:16;;;;;;;;;;;8.00;85.70;;;;;;5046185;28;19928;-63
2023/12/16 12:02:50;;;;;;;;;;;8.00;85.60;;;;;;5054928;28;20341;-61
2023/12/16 12:05:23;;;;;;;;;;;8.10;85.60;;;;;;5052081;28;19925;-61
2023/12/16 12:07:57;;;;;;;;;;;8.10;85.50;;;;;;5065264;28;20379;-62
2023/12/16 12:10:31;;;;;;;;;;;8.10;85.20;;;;;;5065527;28;20017;-62
2023/12/16 12:12:58;;;;;;;;;;;8.10;85.20;;;;;;5055310;28;19925;-60
2023/12/16 12:15:38;;;;;;;;;;;8.00;85.00;;;;;;5057189;28;19940;-62
2023/12/16 12:18:11;;;;;;;;;;;8.00;84.80;;;;;;5069245;28;20294;-62
2023/12/16 12:20:44;;;;;;;;;;;8.00;84.50;;;;;;5069287;28;19925;-63
2023/12/16 12:23:19;;;;;;;;;;;8.00;84.80;;;;;;5069836;28;19959;-61
2023/12/16 12:25:56;;;;;;;;;;;8.00;84.60;;;;;;5067930;28;19974;-62
2023/12/16 12:28:30;;;;;;;;;;;8.00;84.50;;;;;;5069381;28;19963;-61
2023/12/16 12:31:04;;;;;;;;;;;8.00;84.30;;;;;;5050524;28;19932;-62
2023/12/16 12:33:37;;;;;;;;;;;8.00;84.20;;;;;;5061027;28;20486;-61
2023/12/16 12:36:10;;;;;;;;;;;8.00;83.80;;;;;;5058672;28;20475;-61
2023/12/16 12:38:51;;;;;;;;;;;8.00;84.10;;;;;;5048769;28;19971;-62
2023/12/16 12:41:24;;;;;;;;;;;7.90;84.10;;;;;;5049779;28;19925;-60
2023/12/16 12:43:58;;;;;;;;;;;8.00;83.80;;;;;;5051289;28;20031;-61
2023/12/16 12:46:34;;;;;;;;;;;8.00;83.90;;;;;;5061591;28;19999;-62
2023/12/16 12:49:07;;;;;;;;;;;8.10;83.90;;;;;;5052078;28;20367;-63
2023/12/16 12:51:49;;;;;;;;;;;8.10;83.40;;;;;;5068470;28;20824;-67
2023/12/16 12:54:25;;;;;;;;;;;8.10;83.30;;;;;;5069676;28;19924;-67
2023/12/16 12:56:58;;;;;;;;;;;8.10;83.10;;;;;;5070222;28;19970;-67
2023/12/16 12:59:31;;;;;;;;;;;8.10;82.90;;;;;;5050976;28;19999;-67
2023/12/16 13:02:04;;;;;;;;;;;8.10;82.90;;;;;;5046833;28;20445;-67
2023/12/16 13:04:37;;;;;;;;;;;8.10;83.00;;;;;;5064257;28;19936;-68
2023/12/16 13:07:10;;;;;;;;;;;8.10;82.70;;;;;;5047454;28;19924;-68
2023/12/16 13:09:44;;;;;;;;;;;8.10;82.40;;;;;;5047948;28;20447;-67
2023/12/16 13:12:18;;;;;;;;;;;8.10;82.20;;;;;;5050638;28;19925;-69
2023/12/16 13:14:51;;;;;;;;;;;8.10;82.10;;;;;;5047645;28;19925;-67
2023/12/16 13:17:24;;;;;;;;;;;8.10;82.00;;;;;;5047618;28;20390;-68
2023/12/16 13:19:57;;;;;;;;;;;8.10;81.90;;;;;;5046361;28;19941;-67
2023/12/16 13:22:34;;;;;;;;;;;8.10;81.80;;;;;;5058035;28;19979;-67
2023/12/16 13:25:11;;;;;;;;;;;8.10;81.80;;;;;;5068976;28;19931;-67
2023/12/16 13:27:44;;;;;;;;;;;8.10;81.60;;;;;;5056412;28;19928;-68
2023/12/16 13:30:11;;;;;;;;;;;8.10;81.40;;;;;;5061235;28;19928;-67
2023/12/16 13:32:44;;;;;;;;;;;8.10;81.50;;;;;;5046602;28;19990;-68
2023/12/16 13:35:11;;;;;;;;;;;8.00;81.10;;;;;;5054694;28;19940;-67
2023/12/16 13:37:44;;;;;;;;;;;8.00;81.20;;;;;;5055602;28;19929;-68
2023/12/16 13:40:18;;;;;;;;;;;8.00;81.40;;;;;;5068302;28;19928;-68
2023/12/16 13:42:52;;;;;;;;;;;8.00;81.40;;;;;;5049390;28;20391;-67
2023/12/16 13:45:25;;;;;;;;;;;8.00;81.30;;;;;;5053172;28;19947;-67
2023/12/16 13:47:58;;;;;;;;;;;7.90;81.30;;;;;;5052700;28;20332;-67
2023/12/16 13:50:31;;;;;;;;;;;7.90;81.30;;;;;;5054843;28;19924;-67
2023/12/16 13:53:04;;;;;;;;;;;7.80;81.00;;;;;;5055595;28;19932;-68
2023/12/16 13:55:38;;;;;;;;;;;7.90;81.20;;;;;;5047607;28;19924;-67
2023/12/16 13:58:11;;;;;;;;;;;7.90;81.50;;;;;;5055542;28;19929;-69
2023/12/16 14:00:44;;;;;;;;;;;7.90;81.30;;;;;;5056047;28;19929;-64
2023/12/16 14:03:17;;;;;;;;;;;7.90;81.50;;;;;;5050509;28;19955;-61
2023/12/16 14:05:50;;;;;;;;;;;7.80;81.30;;;;;;5057782;28;19955;-62
2023/12/16 14:08:24;;;;;;;;;;;7.80;81.50;;;;;;5069553;28;19931;-62
2023/12/16 14:10:58;;;;;;;;;;;7.80;81.90;;;;;;5059561;28;19967;-63
2023/12/16 14:13:32;;;;;;;;;;;7.70;81.60;;;;;;5058673;28;19991;-60
2023/12/16 14:16:06;;;;;;;;;;;7.70;81.80;;;;;;5059168;28;19928;-62
2023/12/16 14:18:41;;;;;;;;;;;7.70;82.00;;;;;;5066470;28;19986;-62
2023/12/16 14:21:22;;;;;;;;;;;7.70;82.10;;;;;;5064610;28;20385;-62
2023/12/16 14:23:55;;;;;;;;;;;7.70;81.90;;;;;;5066553;28;19956;-63
2023/12/16 14:26:30;;;;;;;;;;;7.70;81.90;;;;;;5057920;28;19938;-63
2023/12/16 14:29:06;;;;;;;;;;;7.70;82.00;;;;;;5048122;28;19924;-62
2023/12/16 14:31:39;;;;;;;;;;;7.70;81.90;;;;;;5058899;28;19939;-61
2023/12/16 14:34:12;;;;;;;;;;;7.70;81.90;;;;;;5063398;28;19928;-62
2023/12/16 14:36:45;;;;;;;;;;;7.70;81.80;;;;;;5065725;28;19997;-62
2023/12/16 14:39:18;;;;;;;;;;;7.60;81.60;;;;;;5066825;28;20002;-62
2023/12/16 14:41:52;;;;;;;;;;;7.60;81.70;;;;;;5065508;28;19939;-62
2023/12/16 14:44:25;;;;;;;;;;;7.50;81.70;;;;;;5065829;28;19939;-63
2023/12/16 14:46:58;;;;;;;;;;;7.50;82.00;;;;;;5053888;28;20019;-62
2023/12/16 14:49:31;;;;;;;;;;;7.50;82.20;;;;;;5066385;28;19924;-61
2023/12/16 14:52:04;;;;;;;;;;;7.40;82.30;;;;;;5042866;28;19929;-62
2023/12/16 14:54:38;;;;;;;;;;;7.40;82.30;;;;;;5045912;28;19990;-63
2023/12/16 14:57:12;;;;;;;;;;;7.40;82.30;;;;;;5041108;28;19929;-62
2023/12/16 14:59:45;;;;;;;;;;;7.30;82.10;;;;;;5043398;28;19925;-61
2023/12/16 15:02:21;;;;;;;;;;;7.30;82.40;;;;;;5039224;28;19968;-62
2023/12/16 15:04:54;;;;;;;;;;;7.30;82.50;;;;;;5042339;28;20517;-62
2023/12/16 15:07:27;;;;;;;;;;;7.20;82.50;;;;;;5048088;28;20000;-61
2023/12/16 15:10:00;;;;;;;;;;;7.20;82.60;;;;;;5054671;28;19928;-69